Morgan City, Mississippi
Current Conditions -  °F | °C
As of 4:19 AM on Sunday 26 Oct 2014 (Local Time) from KGWO Reporting Station
Haze Haze  
Wind Chill: 57°   Ceiling: Unl
Heat Index: 57°   Visibility: 5mi
Dew Point: 55°   Wind: 0mph
Humidity: 93%   Direction: NA
Pressure: 30.02"   Gusts: NA
Location:  33.38°N, 90.35°W
Report Text: KGWO 260919Z AUTO 00000KT 5SM BR CLR 14/13 A3002 RMK AO2 T01390128 TSNO
Loading
Personal Weather Stations






























Interactive Weather Map
Tropical Storm Tracking
New forecast layout! Learn more

10-Day Weather Forecast

Advertisements
Track Severe Weather on mobile